Terminal Aerodrome Forecast
Issued by NWS

Home | Current Version | Previous Version | Graphics & Text | Print | Product List | Glossary On
Versions: 1 2 3 4 5 6 7 8 9 10 11 12 13 14 15 16 17
208
FTUS43 KICT 200803 AAB
TAFRSL
TAF AMD
KRSL 200803Z 2008/2106 31020G27KT P6SM SCT006 OVC010
      TEMPO 2008/2010 4SM -DZ BR BKN006
     FM201000 33013KT P6SM OVC015
     FM201500 30017KT P6SM OVC022
     FM201700 32017KT P6SM OVC035=

USA.gov is the U.S. government's official web portal to all federal, state and local government web resources and services.